CheckWX is a tool to help pilots better visualize weather data.  It is not intended as a substitute for an official pre-flight weather briefing.

05:41:31 UTC

YBCG TAF
Gold Coast Airport
Gold Coast, Australia
TAF YBCG 240534Z 2406/2506 16022G32KT 9999 SCT040 FM240900 19014KT 9999 -SHRA SCT030 FM242200 15015G25KT 9999 -SHRA SCT040 INTER 2412/2502 16015G25KT 5000 SHRA SCT020 BKN030

Feb-24@
06:00 UTC

Feb-24 @ 06:00 UTC

Feb-24@
09:00 UTC

Feb-24 @ 09:00 UTC

TAF YBCG 240534Z 2406/2506 16022G32KT 9999 SCT040
Wind
  • 160° at 22 KTS
  • {Gusting to 32 KTS
Cloud Levels
  • Scattered at 4,000' AGL

Feb-24@
09:00 UTC

Feb-24 @ 09:00 UTC

Feb-24@
22:00 UTC

Feb-24 @ 22:00 UTC

FM240900 19014KT 9999 -SHRA SCT030

From

From Standard forecast or significant change

Wind
  • 190° at 14 KTS
Conditions
Light Rain
Cloud Levels
  • Scattered at 3,000' AGL

Feb-24@
12:00 UTC

Feb-24 @ 12:00 UTC

Feb-25@
02:00 UTC

Feb-25 @ 02:00 UTC

INTER 2412/2502 16015G25KT 5000 SHRA SCT020 BKN030

Temporary

Temporary Changes expected for less than half the time period

Wind
  • 160° at 15 KTS
  • {Gusting to 25 KTS
Conditions
Rain
Cloud Levels
  • Scattered at 2,000' AGL
  • Broken at 3,000' AGL

Feb-24@
22:00 UTC

Feb-24 @ 22:00 UTC

Feb-25@
06:00 UTC

Feb-25 @ 06:00 UTC

FM242200 15015G25KT 9999 -SHRA SCT040

From

From Standard forecast or significant change

Wind
  • 150° at 15 KTS
  • {Gusting to 25 KTS
Conditions
Light Rain
Cloud Levels
  • Scattered at 4,000' AGL